sensor_id;sensor_type;location;lat;lon;timestamp;P1;durP1;ratioP1;P2;durP2;ratioP2
61112;SDS011;47184;57.998;56.184;2022-11-10T00:00:37;0.80;;;0.40;;
61112;SDS011;47184;57.998;56.184;2022-11-10T00:03:22;0.60;;;0.28;;
61112;SDS011;47184;57.998;56.184;2022-11-10T00:06:11;0.55;;;0.40;;
61112;SDS011;47184;57.998;56.184;2022-11-10T00:08:56;0.30;;;0.15;;
61112;SDS011;47184;57.998;56.184;2022-11-10T00:11:40;1.38;;;0.60;;
61112;SDS011;47184;57.998;56.184;2022-11-10T00:14:25;0.57;;;0.38;;
61112;SDS011;47184;57.998;56.184;2022-11-10T00:17:30;1.58;;;0.50;;
61112;SDS011;47184;57.998;56.184;2022-11-10T00:20:15;0.55;;;0.35;;
61112;SDS011;47184;57.998;56.184;2022-11-10T00:25:44;0.43;;;0.22;;
61112;SDS011;47184;57.998;56.184;2022-11-10T00:31:14;0.85;;;0.20;;
61112;SDS011;47184;57.998;56.184;2022-11-10T00:33:59;1.27;;;0.50;;
61112;SDS011;47184;57.998;56.184;2022-11-10T00:36:44;1.27;;;0.55;;
61112;SDS011;47184;57.998;56.184;2022-11-10T00:42:12;0.87;;;0.20;;
61112;SDS011;47184;57.998;56.184;2022-11-10T00:44:57;0.28;;;0.15;;
61112;SDS011;47184;57.998;56.184;2022-11-10T00:47:42;0.35;;;0.30;;
61112;SDS011;47184;57.998;56.184;2022-11-10T00:50:28;0.50;;;0.32;;
61112;SDS011;47184;57.998;56.184;2022-11-10T00:53:13;1.55;;;0.65;;
61112;SDS011;47184;57.998;56.184;2022-11-10T00:55:58;1.00;;;0.55;;
61112;SDS011;47184;57.998;56.184;2022-11-10T01:01:27;1.08;;;0.20;;
61112;SDS011;47184;57.998;56.184;2022-11-10T01:04:12;0.75;;;0.45;;
61112;SDS011;47184;57.998;56.184;2022-11-10T01:06:57;2.00;;;0.65;;
61112;SDS011;47184;57.998;56.184;2022-11-10T01:09:42;0.30;;;0.20;;
61112;SDS011;47184;57.998;56.184;2022-11-10T01:12:29;1.20;;;0.50;;
61112;SDS011;47184;57.998;56.184;2022-11-10T01:15:14;0.77;;;0.22;;
61112;SDS011;47184;57.998;56.184;2022-11-10T01:17:58;1.13;;;0.40;;
61112;SDS011;47184;57.998;56.184;2022-11-10T01:20:43;0.75;;;0.47;;
61112;SDS011;47184;57.998;56.184;2022-11-10T01:26:13;2.05;;;0.80;;
61112;SDS011;47184;57.998;56.184;2022-11-10T01:28:58;0.90;;;0.55;;
61112;SDS011;47184;57.998;56.184;2022-11-10T01:31:43;1.23;;;0.43;;
61112;SDS011;47184;57.998;56.184;2022-11-10T01:37:12;0.45;;;0.22;;
61112;SDS011;47184;57.998;56.184;2022-11-10T01:39:56;1.23;;;0.47;;
61112;SDS011;47184;57.998;56.184;2022-11-10T01:42:48;0.57;;;0.30;;
61112;SDS011;47184;57.998;56.184;2022-11-10T01:45:40;1.55;;;0.40;;
61112;SDS011;47184;57.998;56.184;2022-11-10T01:51:38;0.35;;;0.25;;
61112;SDS011;47184;57.998;56.184;2022-11-10T01:54:29;0.63;;;0.40;;
61112;SDS011;47184;57.998;56.184;2022-11-10T01:57:17;0.52;;;0.25;;
61112;SDS011;47184;57.998;56.184;2022-11-10T02:00:03;0.47;;;0.20;;
61112;SDS011;47184;57.998;56.184;2022-11-10T02:03:00;0.60;;;0.30;;
61112;SDS011;47184;57.998;56.184;2022-11-10T02:06:05;1.65;;;0.50;;
61112;SDS011;47184;57.998;56.184;2022-11-10T02:08:52;0.82;;;0.35;;
61112;SDS011;47184;57.998;56.184;2022-11-10T02:11:39;2.45;;;0.70;;
61112;SDS011;47184;57.998;56.184;2022-11-10T02:14:25;0.57;;;0.40;;
61112;SDS011;47184;57.998;56.184;2022-11-10T02:17:11;2.08;;;0.30;;
61112;SDS011;47184;57.998;56.184;2022-11-10T02:19:57;1.52;;;0.50;;
61112;SDS011;47184;57.998;56.184;2022-11-10T02:22:43;2.28;;;0.50;;
61112;SDS011;47184;57.998;56.184;2022-11-10T02:25:28;1.42;;;0.43;;
61112;SDS011;47184;57.998;56.184;2022-11-10T02:28:16;1.85;;;0.98;;
61112;SDS011;47184;57.998;56.184;2022-11-10T02:31:00;1.52;;;0.70;;
61112;SDS011;47184;57.998;56.184;2022-11-10T02:33:46;4.97;;;0.90;;
61112;SDS011;47184;57.998;56.184;2022-11-10T02:39:15;4.63;;;0.82;;
61112;SDS011;47184;57.998;56.184;2022-11-10T02:44:44;3.08;;;0.77;;
61112;SDS011;47184;57.998;56.184;2022-11-10T02:47:29;3.50;;;1.10;;
61112;SDS011;47184;57.998;56.184;2022-11-10T02:50:14;2.10;;;1.05;;
61112;SDS011;47184;57.998;56.184;2022-11-10T02:52:59;6.68;;;1.27;;
61112;SDS011;47184;57.998;56.184;2022-11-10T02:55:43;3.03;;;1.30;;
61112;SDS011;47184;57.998;56.184;2022-11-10T02:58:28;3.03;;;1.30;;
61112;SDS011;47184;57.998;56.184;2022-11-10T03:01:13;3.05;;;1.55;;
61112;SDS011;47184;57.998;56.184;2022-11-10T03:03:58;5.18;;;1.40;;
61112;SDS011;47184;57.998;56.184;2022-11-10T03:06:43;5.15;;;2.05;;
61112;SDS011;47184;57.998;56.184;2022-11-10T03:09:28;3.60;;;1.65;;
61112;SDS011;47184;57.998;56.184;2022-11-10T03:14:57;2.55;;;1.15;;
61112;SDS011;47184;57.998;56.184;2022-11-10T03:17:42;1.95;;;0.77;;
61112;SDS011;47184;57.998;56.184;2022-11-10T03:20:27;3.25;;;1.63;;
61112;SDS011;47184;57.998;56.184;2022-11-10T03:23:15;3.20;;;1.25;;
61112;SDS011;47184;57.998;56.184;2022-11-10T03:26:02;5.03;;;1.85;;
61112;SDS011;47184;57.998;56.184;2022-11-10T03:28:47;1.25;;;0.70;;
61112;SDS011;47184;57.998;56.184;2022-11-10T03:31:32;3.47;;;1.77;;
61112;SDS011;47184;57.998;56.184;2022-11-10T03:37:01;2.33;;;0.75;;
61112;SDS011;47184;57.998;56.184;2022-11-10T03:39:46;2.15;;;0.73;;
61112;SDS011;47184;57.998;56.184;2022-11-10T03:42:30;1.80;;;1.02;;
61112;SDS011;47184;57.998;56.184;2022-11-10T03:45:15;1.45;;;0.73;;
61112;SDS011;47184;57.998;56.184;2022-11-10T03:48:00;3.45;;;1.67;;
61112;SDS011;47184;57.998;56.184;2022-11-10T03:50:45;2.50;;;1.00;;
61112;SDS011;47184;57.998;56.184;2022-11-10T03:53:30;3.55;;;1.15;;
61112;SDS011;47184;57.998;56.184;2022-11-10T03:56:15;0.70;;;0.45;;
61112;SDS011;47184;57.998;56.184;2022-11-10T03:59:00;1.02;;;0.60;;
61112;SDS011;47184;57.998;56.184;2022-11-10T04:01:45;0.20;;;0.20;;
61112;SDS011;47184;57.998;56.184;2022-11-10T04:04:29;2.20;;;1.58;;
61112;SDS011;47184;57.998;56.184;2022-11-10T04:07:33;5.05;;;1.17;;
61112;SDS011;47184;57.998;56.184;2022-11-10T04:10:36;3.75;;;1.08;;
61112;SDS011;47184;57.998;56.184;2022-11-10T04:13:21;2.20;;;0.90;;
61112;SDS011;47184;57.998;56.184;2022-11-10T04:16:24;1.33;;;0.60;;
61112;SDS011;47184;57.998;56.184;2022-11-10T04:19:09;2.65;;;1.15;;
61112;SDS011;47184;57.998;56.184;2022-11-10T04:21:54;4.65;;;1.42;;
61112;SDS011;47184;57.998;56.184;2022-11-10T04:24:39;1.27;;;0.73;;
61112;SDS011;47184;57.998;56.184;2022-11-10T04:27:24;1.73;;;0.98;;
61112;SDS011;47184;57.998;56.184;2022-11-10T04:30:09;2.80;;;0.75;;
61112;SDS011;47184;57.998;56.184;2022-11-10T04:35:38;1.33;;;0.57;;
61112;SDS011;47184;57.998;56.184;2022-11-10T04:38:22;2.70;;;1.08;;
61112;SDS011;47184;57.998;56.184;2022-11-10T04:41:06;0.93;;;0.60;;
61112;SDS011;47184;57.998;56.184;2022-11-10T04:43:51;2.17;;;1.08;;
61112;SDS011;47184;57.998;56.184;2022-11-10T04:46:38;1.02;;;0.63;;
61112;SDS011;47184;57.998;56.184;2022-11-10T04:49:23;2.38;;;1.35;;
61112;SDS011;47184;57.998;56.184;2022-11-10T04:52:08;4.25;;;2.17;;
61112;SDS011;47184;57.998;56.184;2022-11-10T04:57:37;0.68;;;0.40;;
61112;SDS011;47184;57.998;56.184;2022-11-10T05:03:08;1.58;;;0.82;;
61112;SDS011;47184;57.998;56.184;2022-11-10T05:05:54;4.95;;;1.15;;
61112;SDS011;47184;57.998;56.184;2022-11-10T05:08:39;5.35;;;2.03;;
61112;SDS011;47184;57.998;56.184;2022-11-10T05:11:26;2.70;;;1.40;;
61112;SDS011;47184;57.998;56.184;2022-11-10T05:14:11;2.65;;;1.25;;
61112;SDS011;47184;57.998;56.184;2022-11-10T05:16:55;0.88;;;0.50;;
61112;SDS011;47184;57.998;56.184;2022-11-10T05:19:40;1.48;;;0.75;;
61112;SDS011;47184;57.998;56.184;2022-11-10T05:22:25;9.52;;;4.50;;
61112;SDS011;47184;57.998;56.184;2022-11-10T05:25:10;2.13;;;1.08;;
61112;SDS011;47184;57.998;56.184;2022-11-10T05:27:55;0.57;;;0.43;;
61112;SDS011;47184;57.998;56.184;2022-11-10T05:30:41;2.17;;;1.10;;
61112;SDS011;47184;57.998;56.184;2022-11-10T05:33:27;3.50;;;1.35;;
61112;SDS011;47184;57.998;56.184;2022-11-10T05:36:12;3.72;;;1.42;;
61112;SDS011;47184;57.998;56.184;2022-11-10T05:38:57;5.88;;;2.05;;
61112;SDS011;47184;57.998;56.184;2022-11-10T05:41:41;6.65;;;2.80;;
61112;SDS011;47184;57.998;56.184;2022-11-10T05:44:26;1.63;;;0.68;;
61112;SDS011;47184;57.998;56.184;2022-11-10T05:47:10;10.25;;;3.28;;
61112;SDS011;47184;57.998;56.184;2022-11-10T05:49:55;6.25;;;2.22;;
61112;SDS011;47184;57.998;56.184;2022-11-10T05:52:50;2.22;;;1.27;;
61112;SDS011;47184;57.998;56.184;2022-11-10T05:55:36;16.00;;;4.35;;
61112;SDS011;47184;57.998;56.184;2022-11-10T05:58:21;13.95;;;3.38;;
61112;SDS011;47184;57.998;56.184;2022-11-10T06:01:05;5.85;;;1.98;;
61112;SDS011;47184;57.998;56.184;2022-11-10T06:03:50;10.93;;;4.30;;
61112;SDS011;47184;57.998;56.184;2022-11-10T06:06:34;6.50;;;2.28;;
61112;SDS011;47184;57.998;56.184;2022-11-10T06:09:19;12.15;;;4.20;;
61112;SDS011;47184;57.998;56.184;2022-11-10T06:12:04;12.82;;;3.63;;
61112;SDS011;47184;57.998;56.184;2022-11-10T06:14:50;11.43;;;3.85;;
61112;SDS011;47184;57.998;56.184;2022-11-10T06:17:36;8.70;;;3.80;;
61112;SDS011;47184;57.998;56.184;2022-11-10T06:20:21;9.63;;;2.05;;
61112;SDS011;47184;57.998;56.184;2022-11-10T06:23:10;16.23;;;5.22;;
61112;SDS011;47184;57.998;56.184;2022-11-10T06:25:55;19.50;;;6.63;;
61112;SDS011;47184;57.998;56.184;2022-11-10T06:31:24;12.00;;;2.63;;
61112;SDS011;47184;57.998;56.184;2022-11-10T06:34:10;5.50;;;2.45;;
61112;SDS011;47184;57.998;56.184;2022-11-10T06:36:55;8.65;;;3.13;;
61112;SDS011;47184;57.998;56.184;2022-11-10T06:39:39;7.30;;;2.70;;
61112;SDS011;47184;57.998;56.184;2022-11-10T06:42:24;4.43;;;1.90;;
61112;SDS011;47184;57.998;56.184;2022-11-10T06:45:08;11.93;;;4.05;;
61112;SDS011;47184;57.998;56.184;2022-11-10T06:47:59;7.70;;;3.58;;
61112;SDS011;47184;57.998;56.184;2022-11-10T06:50:49;9.05;;;3.63;;
61112;SDS011;47184;57.998;56.184;2022-11-10T06:53:33;6.97;;;3.47;;
61112;SDS011;47184;57.998;56.184;2022-11-10T06:56:17;4.03;;;1.63;;
61112;SDS011;47184;57.998;56.184;2022-11-10T06:59:02;6.47;;;1.33;;
61112;SDS011;47184;57.998;56.184;2022-11-10T07:01:50;7.63;;;3.42;;
61112;SDS011;47184;57.998;56.184;2022-11-10T07:04:34;7.32;;;3.33;;
61112;SDS011;47184;57.998;56.184;2022-11-10T07:10:03;7.00;;;2.80;;
61112;SDS011;47184;57.998;56.184;2022-11-10T07:12:54;8.30;;;3.90;;
61112;SDS011;47184;57.998;56.184;2022-11-10T07:15:39;10.88;;;3.38;;
61112;SDS011;47184;57.998;56.184;2022-11-10T07:18:23;11.00;;;4.00;;
61112;SDS011;47184;57.998;56.184;2022-11-10T07:21:08;11.57;;;4.68;;
61112;SDS011;47184;57.998;56.184;2022-11-10T07:23:52;4.70;;;1.77;;
61112;SDS011;47184;57.998;56.184;2022-11-10T07:26:37;13.27;;;3.35;;
61112;SDS011;47184;57.998;56.184;2022-11-10T07:29:22;7.47;;;3.70;;
61112;SDS011;47184;57.998;56.184;2022-11-10T07:32:08;8.15;;;3.58;;
61112;SDS011;47184;57.998;56.184;2022-11-10T07:34:53;9.23;;;3.78;;
61112;SDS011;47184;57.998;56.184;2022-11-10T07:40:22;5.72;;;2.97;;
61112;SDS011;47184;57.998;56.184;2022-11-10T07:43:07;5.68;;;2.00;;
61112;SDS011;47184;57.998;56.184;2022-11-10T07:45:51;10.75;;;3.58;;
61112;SDS011;47184;57.998;56.184;2022-11-10T07:48:36;4.10;;;2.20;;
61112;SDS011;47184;57.998;56.184;2022-11-10T07:51:21;8.80;;;4.10;;
61112;SDS011;47184;57.998;56.184;2022-11-10T07:54:06;6.25;;;3.20;;
61112;SDS011;47184;57.998;56.184;2022-11-10T07:56:51;2.03;;;1.42;;
61112;SDS011;47184;57.998;56.184;2022-11-10T07:59:36;2.10;;;1.00;;
61112;SDS011;47184;57.998;56.184;2022-11-10T08:05:05;8.10;;;2.33;;
61112;SDS011;47184;57.998;56.184;2022-11-10T08:07:51;4.15;;;1.70;;
61112;SDS011;47184;57.998;56.184;2022-11-10T08:10:36;2.25;;;1.48;;
61112;SDS011;47184;57.998;56.184;2022-11-10T08:13:22;7.43;;;2.72;;
61112;SDS011;47184;57.998;56.184;2022-11-10T08:16:06;3.20;;;1.70;;
61112;SDS011;47184;57.998;56.184;2022-11-10T08:18:51;7.80;;;1.70;;
61112;SDS011;47184;57.998;56.184;2022-11-10T08:21:35;7.70;;;2.38;;
61112;SDS011;47184;57.998;56.184;2022-11-10T08:24:20;3.30;;;1.45;;
61112;SDS011;47184;57.998;56.184;2022-11-10T08:27:05;3.38;;;1.80;;
61112;SDS011;47184;57.998;56.184;2022-11-10T08:29:50;4.90;;;1.65;;
61112;SDS011;47184;57.998;56.184;2022-11-10T08:32:35;4.07;;;1.63;;
61112;SDS011;47184;57.998;56.184;2022-11-10T08:35:20;3.47;;;1.55;;
61112;SDS011;47184;57.998;56.184;2022-11-10T08:38:06;4.32;;;2.10;;
61112;SDS011;47184;57.998;56.184;2022-11-10T08:40:55;4.40;;;2.10;;
61112;SDS011;47184;57.998;56.184;2022-11-10T08:43:40;2.63;;;1.02;;
61112;SDS011;47184;57.998;56.184;2022-11-10T08:46:25;4.88;;;2.25;;
61112;SDS011;47184;57.998;56.184;2022-11-10T08:49:19;4.88;;;2.42;;
61112;SDS011;47184;57.998;56.184;2022-11-10T08:52:04;2.65;;;1.40;;
61112;SDS011;47184;57.998;56.184;2022-11-10T08:54:49;0.63;;;0.50;;
61112;SDS011;47184;57.998;56.184;2022-11-10T08:57:35;5.75;;;1.95;;
61112;SDS011;47184;57.998;56.184;2022-11-10T09:00:19;1.98;;;1.17;;
61112;SDS011;47184;57.998;56.184;2022-11-10T09:03:09;1.67;;;0.80;;
61112;SDS011;47184;57.998;56.184;2022-11-10T09:05:58;4.53;;;2.13;;
61112;SDS011;47184;57.998;56.184;2022-11-10T09:08:43;0.57;;;0.47;;
61112;SDS011;47184;57.998;56.184;2022-11-10T09:11:28;2.58;;;1.35;;
61112;SDS011;47184;57.998;56.184;2022-11-10T09:14:13;2.90;;;1.67;;
61112;SDS011;47184;57.998;56.184;2022-11-10T09:16:58;2.95;;;1.30;;
61112;SDS011;47184;57.998;56.184;2022-11-10T09:19:43;2.38;;;1.23;;
61112;SDS011;47184;57.998;56.184;2022-11-10T09:22:29;2.30;;;0.73;;
61112;SDS011;47184;57.998;56.184;2022-11-10T09:25:13;1.25;;;0.45;;
61112;SDS011;47184;57.998;56.184;2022-11-10T09:27:58;5.03;;;1.60;;
61112;SDS011;47184;57.998;56.184;2022-11-10T09:33:31;3.78;;;1.90;;
61112;SDS011;47184;57.998;56.184;2022-11-10T09:36:17;2.03;;;0.88;;
61112;SDS011;47184;57.998;56.184;2022-11-10T09:39:02;2.05;;;0.85;;
61112;SDS011;47184;57.998;56.184;2022-11-10T09:44:32;1.90;;;0.80;;
61112;SDS011;47184;57.998;56.184;2022-11-10T09:47:23;3.60;;;1.67;;
61112;SDS011;47184;57.998;56.184;2022-11-10T09:50:17;2.90;;;1.27;;
61112;SDS011;47184;57.998;56.184;2022-11-10T09:56:31;0.88;;;0.65;;
61112;SDS011;47184;57.998;56.184;2022-11-10T09:59:23;5.55;;;1.55;;
61112;SDS011;47184;57.998;56.184;2022-11-10T10:08:36;1.52;;;0.85;;
61112;SDS011;47184;57.998;56.184;2022-11-10T10:23:54;4.38;;;2.30;;
61112;SDS011;47184;57.998;56.184;2022-11-10T10:26:52;6.10;;;2.05;;
61112;SDS011;47184;57.998;56.184;2022-11-10T10:29:43;4.30;;;2.03;;
61112;SDS011;47184;57.998;56.184;2022-11-10T10:32:30;1.58;;;1.02;;
61112;SDS011;47184;57.998;56.184;2022-11-10T10:35:16;0.82;;;0.50;;
61112;SDS011;47184;57.998;56.184;2022-11-10T10:38:02;2.30;;;1.00;;
61112;SDS011;47184;57.998;56.184;2022-11-10T10:40:50;4.45;;;2.08;;
61112;SDS011;47184;57.998;56.184;2022-11-10T10:43:35;1.88;;;1.25;;
61112;SDS011;47184;57.998;56.184;2022-11-10T10:46:20;5.45;;;2.50;;
61112;SDS011;47184;57.998;56.184;2022-11-10T10:52:11;3.42;;;1.77;;
61112;SDS011;47184;57.998;56.184;2022-11-10T10:55:05;1.73;;;0.90;;
61112;SDS011;47184;57.998;56.184;2022-11-10T10:57:52;5.35;;;2.30;;
61112;SDS011;47184;57.998;56.184;2022-11-10T11:00:51;2.08;;;1.00;;
61112;SDS011;47184;57.998;56.184;2022-11-10T11:06:34;8.98;;;1.77;;
61112;SDS011;47184;57.998;56.184;2022-11-10T11:09:23;2.80;;;1.48;;
61112;SDS011;47184;57.998;56.184;2022-11-10T11:18:17;0.77;;;0.57;;
61112;SDS011;47184;57.998;56.184;2022-11-10T11:23:54;4.15;;;1.52;;
61112;SDS011;47184;57.998;56.184;2022-11-10T11:36:16;2.22;;;0.98;;
61112;SDS011;47184;57.998;56.184;2022-11-10T11:39:39;2.45;;;0.50;;
61112;SDS011;47184;57.998;56.184;2022-11-10T11:45:58;3.22;;;1.15;;
61112;SDS011;47184;57.998;56.184;2022-11-10T11:52:10;1.00;;;0.68;;
61112;SDS011;47184;57.998;56.184;2022-11-10T12:01:17;7.97;;;0.85;;
61112;SDS011;47184;57.998;56.184;2022-11-10T12:10:04;4.65;;;1.40;;
61112;SDS011;47184;57.998;56.184;2022-11-10T12:32:36;1.15;;;0.60;;
61112;SDS011;47184;57.998;56.184;2022-11-10T12:35:27;3.33;;;1.30;;
61112;SDS011;47184;57.998;56.184;2022-11-10T12:38:24;2.28;;;1.10;;
61112;SDS011;47184;57.998;56.184;2022-11-10T12:41:23;2.72;;;0.90;;
61112;SDS011;47184;57.998;56.184;2022-11-10T12:47:15;4.97;;;1.40;;
61112;SDS011;47184;57.998;56.184;2022-11-10T12:56:17;1.35;;;0.90;;
61112;SDS011;47184;57.998;56.184;2022-11-10T13:02:15;3.45;;;1.48;;
61112;SDS011;47184;57.998;56.184;2022-11-10T13:08:11;1.05;;;0.55;;
61112;SDS011;47184;57.998;56.184;2022-11-10T13:11:19;0.82;;;0.50;;
61112;SDS011;47184;57.998;56.184;2022-11-10T13:14:20;3.30;;;1.00;;
61112;SDS011;47184;57.998;56.184;2022-11-10T13:17:50;1.57;;;1.00;;
61112;SDS011;47184;57.998;56.184;2022-11-10T13:23:23;1.83;;;0.75;;
61112;SDS011;47184;57.998;56.184;2022-11-10T13:32:35;3.63;;;1.23;;
61112;SDS011;47184;57.998;56.184;2022-11-10T13:44:26;3.70;;;0.73;;
61112;SDS011;47184;57.998;56.184;2022-11-10T13:47:17;2.20;;;1.13;;
61112;SDS011;47184;57.998;56.184;2022-11-10T13:59:21;3.30;;;1.35;;
61112;SDS011;47184;57.998;56.184;2022-11-10T14:08:13;1.30;;;0.60;;
61112;SDS011;47184;57.998;56.184;2022-11-10T14:11:06;1.13;;;0.55;;
61112;SDS011;47184;57.998;56.184;2022-11-10T14:17:34;1.98;;;1.10;;
61112;SDS011;47184;57.998;56.184;2022-11-10T14:20:26;0.70;;;0.47;;
61112;SDS011;47184;57.998;56.184;2022-11-10T14:23:23;4.60;;;1.75;;
61112;SDS011;47184;57.998;56.184;2022-11-10T14:26:24;3.60;;;1.40;;
61112;SDS011;47184;57.998;56.184;2022-11-10T14:29:26;2.72;;;1.08;;
61112;SDS011;47184;57.998;56.184;2022-11-10T14:32:14;4.18;;;2.15;;
61112;SDS011;47184;57.998;56.184;2022-11-10T14:35:02;3.97;;;2.08;;
61112;SDS011;47184;57.998;56.184;2022-11-10T14:37:47;6.22;;;2.85;;
61112;SDS011;47184;57.998;56.184;2022-11-10T14:40:32;2.28;;;0.93;;
61112;SDS011;47184;57.998;56.184;2022-11-10T14:43:28;5.05;;;1.80;;
61112;SDS011;47184;57.998;56.184;2022-11-10T14:46:14;7.80;;;3.35;;
61112;SDS011;47184;57.998;56.184;2022-11-10T14:48:59;11.63;;;4.28;;
61112;SDS011;47184;57.998;56.184;2022-11-10T14:51:44;7.43;;;2.85;;
61112;SDS011;47184;57.998;56.184;2022-11-10T14:54:29;4.43;;;1.90;;
61112;SDS011;47184;57.998;56.184;2022-11-10T14:57:15;10.38;;;2.85;;
61112;SDS011;47184;57.998;56.184;2022-11-10T15:00:04;9.73;;;4.65;;
61112;SDS011;47184;57.998;56.184;2022-11-10T15:02:54;6.57;;;3.30;;
61112;SDS011;47184;57.998;56.184;2022-11-10T15:05:41;9.75;;;4.70;;
61112;SDS011;47184;57.998;56.184;2022-11-10T15:08:26;13.98;;;5.40;;
61112;SDS011;47184;57.998;56.184;2022-11-10T15:11:32;13.13;;;4.68;;
61112;SDS011;47184;57.998;56.184;2022-11-10T15:14:32;14.50;;;6.22;;
61112;SDS011;47184;57.998;56.184;2022-11-10T15:17:20;14.68;;;5.95;;
61112;SDS011;47184;57.998;56.184;2022-11-10T15:20:25;9.80;;;3.75;;
61112;SDS011;47184;57.998;56.184;2022-11-10T15:23:20;12.50;;;4.07;;
61112;SDS011;47184;57.998;56.184;2022-11-10T15:26:24;25.48;;;5.68;;
61112;SDS011;47184;57.998;56.184;2022-11-10T15:29:21;9.63;;;4.10;;
61112;SDS011;47184;57.998;56.184;2022-11-10T15:32:13;9.00;;;4.47;;
61112;SDS011;47184;57.998;56.184;2022-11-10T15:35:09;21.85;;;8.82;;
61112;SDS011;47184;57.998;56.184;2022-11-10T15:43:55;6.63;;;3.50;;
61112;SDS011;47184;57.998;56.184;2022-11-10T15:46:40;18.95;;;7.63;;
61112;SDS011;47184;57.998;56.184;2022-11-10T15:54:56;23.17;;;8.23;;
61112;SDS011;47184;57.998;56.184;2022-11-10T15:57:41;11.80;;;5.22;;
61112;SDS011;47184;57.998;56.184;2022-11-10T16:03:15;9.30;;;4.82;;
61112;SDS011;47184;57.998;56.184;2022-11-10T16:06:02;20.08;;;7.68;;
61112;SDS011;47184;57.998;56.184;2022-11-10T16:08:48;14.60;;;6.65;;
61112;SDS011;47184;57.998;56.184;2022-11-10T16:14:18;8.48;;;3.40;;
61112;SDS011;47184;57.998;56.184;2022-11-10T16:19:47;8.70;;;4.63;;
61112;SDS011;47184;57.998;56.184;2022-11-10T16:22:32;7.95;;;4.15;;
61112;SDS011;47184;57.998;56.184;2022-11-10T16:25:17;13.10;;;4.22;;
61112;SDS011;47184;57.998;56.184;2022-11-10T16:28:03;8.75;;;4.07;;
61112;SDS011;47184;57.998;56.184;2022-11-10T16:30:49;6.13;;;3.63;;
61112;SDS011;47184;57.998;56.184;2022-11-10T16:33:35;4.35;;;3.00;;
61112;SDS011;47184;57.998;56.184;2022-11-10T16:36:23;13.98;;;5.72;;
61112;SDS011;47184;57.998;56.184;2022-11-10T16:39:12;9.35;;;4.55;;
61112;SDS011;47184;57.998;56.184;2022-11-10T16:41:59;9.15;;;5.00;;
61112;SDS011;47184;57.998;56.184;2022-11-10T16:44:44;6.47;;;3.45;;
61112;SDS011;47184;57.998;56.184;2022-11-10T16:47:33;12.98;;;6.15;;
61112;SDS011;47184;57.998;56.184;2022-11-10T16:50:28;8.57;;;3.60;;
61112;SDS011;47184;57.998;56.184;2022-11-10T16:53:29;21.88;;;9.23;;
61112;SDS011;47184;57.998;56.184;2022-11-10T16:56:15;13.70;;;5.90;;
61112;SDS011;47184;57.998;56.184;2022-11-10T16:59:03;6.38;;;2.95;;
61112;SDS011;47184;57.998;56.184;2022-11-10T17:01:49;4.88;;;2.90;;
61112;SDS011;47184;57.998;56.184;2022-11-10T17:04:37;6.95;;;3.85;;
61112;SDS011;47184;57.998;56.184;2022-11-10T17:10:12;4.75;;;2.05;;
61112;SDS011;47184;57.998;56.184;2022-11-10T17:12:58;4.60;;;2.65;;
61112;SDS011;47184;57.998;56.184;2022-11-10T17:15:43;7.30;;;3.60;;
61112;SDS011;47184;57.998;56.184;2022-11-10T17:18:30;5.88;;;3.42;;
61112;SDS011;47184;57.998;56.184;2022-11-10T17:21:15;16.70;;;8.30;;
61112;SDS011;47184;57.998;56.184;2022-11-10T17:24:02;4.22;;;2.65;;
61112;SDS011;47184;57.998;56.184;2022-11-10T17:26:48;12.02;;;4.90;;
61112;SDS011;47184;57.998;56.184;2022-11-10T17:29:33;6.50;;;3.20;;
61112;SDS011;47184;57.998;56.184;2022-11-10T17:32:18;3.10;;;2.00;;
61112;SDS011;47184;57.998;56.184;2022-11-10T17:35:02;6.15;;;2.75;;
61112;SDS011;47184;57.998;56.184;2022-11-10T17:37:48;3.10;;;2.40;;
61112;SDS011;47184;57.998;56.184;2022-11-10T17:40:34;12.90;;;5.78;;
61112;SDS011;47184;57.998;56.184;2022-11-10T17:43:19;9.13;;;2.97;;
61112;SDS011;47184;57.998;56.184;2022-11-10T17:46:05;13.40;;;5.22;;
61112;SDS011;47184;57.998;56.184;2022-11-10T17:48:50;5.50;;;2.88;;
61112;SDS011;47184;57.998;56.184;2022-11-10T17:51:37;4.55;;;2.58;;
61112;SDS011;47184;57.998;56.184;2022-11-10T17:54:22;8.40;;;3.35;;
61112;SDS011;47184;57.998;56.184;2022-11-10T17:57:07;2.13;;;1.13;;
61112;SDS011;47184;57.998;56.184;2022-11-10T17:59:53;4.25;;;1.92;;
61112;SDS011;47184;57.998;56.184;2022-11-10T18:02:38;5.45;;;2.22;;
61112;SDS011;47184;57.998;56.184;2022-11-10T18:05:23;9.38;;;2.80;;
61112;SDS011;47184;57.998;56.184;2022-11-10T18:08:08;1.27;;;0.57;;
61112;SDS011;47184;57.998;56.184;2022-11-10T18:10:58;5.82;;;2.97;;
61112;SDS011;47184;57.998;56.184;2022-11-10T18:13:46;4.30;;;1.95;;
61112;SDS011;47184;57.998;56.184;2022-11-10T18:16:31;4.70;;;2.13;;
61112;SDS011;47184;57.998;56.184;2022-11-10T18:19:19;7.32;;;2.88;;
61112;SDS011;47184;57.998;56.184;2022-11-10T18:22:04;6.32;;;2.78;;
61112;SDS011;47184;57.998;56.184;2022-11-10T18:24:50;7.20;;;2.25;;
61112;SDS011;47184;57.998;56.184;2022-11-10T18:27:38;6.18;;;3.65;;
61112;SDS011;47184;57.998;56.184;2022-11-10T18:30:22;7.28;;;3.85;;
61112;SDS011;47184;57.998;56.184;2022-11-10T18:33:08;7.03;;;3.22;;
61112;SDS011;47184;57.998;56.184;2022-11-10T18:35:56;3.78;;;1.95;;
61112;SDS011;47184;57.998;56.184;2022-11-10T18:38:43;3.42;;;1.98;;
61112;SDS011;47184;57.998;56.184;2022-11-10T18:41:31;5.63;;;2.03;;
61112;SDS011;47184;57.998;56.184;2022-11-10T18:44:34;4.50;;;0.98;;
61112;SDS011;47184;57.998;56.184;2022-11-10T18:47:20;2.78;;;1.65;;
61112;SDS011;47184;57.998;56.184;2022-11-10T18:50:05;5.95;;;3.35;;
61112;SDS011;47184;57.998;56.184;2022-11-10T18:52:50;4.43;;;2.00;;
61112;SDS011;47184;57.998;56.184;2022-11-10T18:55:35;8.95;;;4.00;;
61112;SDS011;47184;57.998;56.184;2022-11-10T18:58:19;5.10;;;3.03;;
61112;SDS011;47184;57.998;56.184;2022-11-10T19:01:05;8.43;;;3.17;;
61112;SDS011;47184;57.998;56.184;2022-11-10T19:03:52;4.90;;;3.08;;
61112;SDS011;47184;57.998;56.184;2022-11-10T19:06:37;14.70;;;5.60;;
61112;SDS011;47184;57.998;56.184;2022-11-10T19:09:23;6.78;;;2.78;;
61112;SDS011;47184;57.998;56.184;2022-11-10T19:12:08;10.35;;;4.60;;
61112;SDS011;47184;57.998;56.184;2022-11-10T19:14:53;7.05;;;3.30;;
61112;SDS011;47184;57.998;56.184;2022-11-10T19:17:38;7.95;;;4.40;;
61112;SDS011;47184;57.998;56.184;2022-11-10T19:20:23;4.35;;;3.10;;
61112;SDS011;47184;57.998;56.184;2022-11-10T19:23:07;9.27;;;4.68;;
61112;SDS011;47184;57.998;56.184;2022-11-10T19:28:46;4.63;;;1.83;;
61112;SDS011;47184;57.998;56.184;2022-11-10T19:31:31;13.40;;;6.35;;
61112;SDS011;47184;57.998;56.184;2022-11-10T19:34:15;14.80;;;6.28;;
61112;SDS011;47184;57.998;56.184;2022-11-10T19:37:03;7.35;;;3.20;;
61112;SDS011;47184;57.998;56.184;2022-11-10T19:39:48;5.32;;;3.50;;
61112;SDS011;47184;57.998;56.184;2022-11-10T19:42:33;3.80;;;2.17;;
61112;SDS011;47184;57.998;56.184;2022-11-10T19:48:04;5.63;;;2.92;;
61112;SDS011;47184;57.998;56.184;2022-11-10T19:50:55;7.55;;;3.38;;
61112;SDS011;47184;57.998;56.184;2022-11-10T19:53:40;5.22;;;3.17;;
61112;SDS011;47184;57.998;56.184;2022-11-10T19:56:30;3.60;;;2.40;;
61112;SDS011;47184;57.998;56.184;2022-11-10T19:59:17;7.93;;;3.67;;
61112;SDS011;47184;57.998;56.184;2022-11-10T20:02:04;3.00;;;1.88;;
61112;SDS011;47184;57.998;56.184;2022-11-10T20:07:51;2.38;;;0.95;;
61112;SDS011;47184;57.998;56.184;2022-11-10T20:10:57;3.13;;;1.90;;
61112;SDS011;47184;57.998;56.184;2022-11-10T20:13:43;2.60;;;1.13;;
61112;SDS011;47184;57.998;56.184;2022-11-10T20:16:28;5.43;;;2.50;;